Search for airport 
image banner adimage banner ad
image banner ad

SNJA - Jardim de Angicos Airport

Located in Jardim De Angicos, Brazil

ICAO - SNJA, IATA -

Data provided by Airmate  

General information

Coordinates: S30°8'4" W50°30'35"
Elevation is 42 feet MSL.
Magnetic variation is -17° East
View others Airports in Rio Grande do Sul

Operational data

Open for public use
Current time UTC:
Current local time:
Weather at : SBCO - Canoas Airport ( 65 km )
METAR: SBCO 011100Z 10011KT 9999 FEW020 23/17 Q1017
TAF: TAF SBCO 010300Z 0106/0118 12005KT 9999 SCT015 TN20/0108Z TX25/0117Z BECMG 0110/0112 18005KT BKN025 BECMG 0114/0116 16010KT RMK PEO
View NOTAMs / SUP AIP / TFR affecting this airport [VIEW]
Communications frequencies: [VIEW]

Runways:

RWY identifierQFULength (ft)Width (ft)SurfaceLDA (ft)
10212559GRASS
28212559GRASS

Airport contact information

Address: Jardim De Angicos Brazil

Satellite view of SNJA